| time (UTC) | temp F | wind direction | speed MPH | gust MPH | rain 1hr in | rain 24hr in | rain mn in | humidity % | barometer mb |
| 20260505173003 | 66 | 353 | 7.0 | 16.0 | 0.00 | 0.00 | 0.00 | 52 | 1009.2 |
| 20260505172524 | 66 | 354 | 7.0 | 16.0 | 0.00 | 0.00 | 0.00 | 54 | 1008.9 |
| 20260505172003 | 66 | 2 | 8.0 | 19.0 | 0.00 | 0.00 | 0.00 | 54 | 1008.6 |
| 20260505171503 | 66 | 350 | 9.0 | 19.0 | 0.00 | 0.00 | 0.00 | 55 | 1008.7 |
| 20260505171003 | 65 | 345 | 9.0 | 19.0 | 0.00 | 0.00 | 0.00 | 54 | 1008.9 |
| 20260505170524 | 66 | 351 | 8.0 | 19.0 | 0.00 | 0.00 | 0.00 | 54 | 1008.7 |
| 20260505170003 | 66 | 342 | 8.0 | 17.0 | 0.00 | 0.00 | 0.00 | 55 | 1009.1 |
| 20260505165503 | 65 | 339 | 10.0 | 17.0 | 0.00 | 0.00 | 0.00 | 55 | 1009.0 |
| 20260505165003 | 66 | 344 | 11.0 | 22.0 | 0.00 | 0.00 | 0.00 | 56 | 1009.0 |
| 20260505164503 | 66 | 343 | 10.0 | 22.0 | 0.00 | 0.00 | 0.00 | 56 | 1008.8 |
| 20260505164003 | 67 | 346 | 8.0 | 17.0 | 0.00 | 0.00 | 0.00 | 55 | 1008.6 |
| 20260505163524 | 67 | 347 | 8.0 | 16.0 | 0.00 | 0.00 | 0.00 | 56 | 1008.6 |
| 20260505163024 | 66 | 340 | 8.0 | 16.0 | 0.00 | 0.00 | 0.00 | 58 | 1008.6 |
| 20260505162503 | 66 | 343 | 8.0 | 18.0 | 0.00 | 0.00 | 0.00 | 58 | 1008.4 |
| 20260505162003 | 66 | 349 | 9.0 | 18.0 | 0.00 | 0.00 | 0.00 | 59 | 1008.1 |
| 20260505161503 | 66 | 351 | 8.0 | 16.0 | 0.00 | 0.00 | 0.00 | 59 | 1007.9 |
| 20260505161003 | 66 | 348 | 8.0 | 17.0 | 0.00 | 0.00 | 0.00 | 61 | 1007.8 |
| 20260505160503 | 66 | 345 | 8.0 | 17.0 | 0.00 | 0.00 | 0.00 | 61 | 1007.7 |
| 20260505153024 | 68 | 338 | 10.0 | 16.0 | 0.00 | 0.00 | 0.00 | 62 | 1007.0 |
| 20260505152503 | 68 | 335 | 10.0 | 16.0 | 0.00 | 0.00 | 0.00 | 63 | 1006.8 |
| 20260505152024 | 68 | 334 | 10.0 | 16.0 | 0.00 | 0.00 | 0.00 | 64 | 1006.7 |
| 20260505151503 | 69 | 332 | 11.0 | 19.0 | 0.00 | 0.00 | 0.00 | 64 | 1006.6 |
| 20260505151003 | 69 | 333 | 11.0 | 19.0 | 0.00 | 0.00 | 0.00 | 63 | 1006.2 |
| 20260505150503 | 69 | 336 | 10.0 | 17.0 | 0.00 | 0.00 | 0.00 | 64 | 1006.1 |
| 20260505140503 | 68 | 342 | 9.0 | 17.0 | 0.00 | 0.00 | 0.00 | 65 | 1005.7 |
| 20260505125003 | 71 | 299 | 5.0 | 11.0 | 0.00 | 0.00 | 0.00 | 30 | 1003.4 |
| 20260505124524 | 70 | 289 | 4.0 | 9.0 | 0.00 | 0.00 | 0.00 | 30 | 1003.5 |
| 20260505124003 | 70 | 285 | 3.0 | 9.0 | 0.00 | 0.00 | 0.00 | 31 | 1003.3 |
| 20260505123503 | 70 | 284 | 3.0 | 9.0 | 0.00 | 0.00 | 0.00 | 31 | 1003.4 |
| 20260505123003 | 70 | 286 | 3.0 | 8.0 | 0.00 | 0.00 | 0.00 | 30 | 1003.0 |
| 20260505122503 | 70 | 288 | 3.0 | 8.0 | 0.00 | 0.00 | 0.00 | 31 | 1003.0 |
| 20260505122003 | 70 | 276 | 3.0 | 8.0 | 0.00 | 0.00 | 0.00 | 30 | 1002.8 |
| 20260505121503 | 70 | 244 | 2.0 | 8.0 | 0.00 | 0.00 | 0.00 | 30 | 1002.7 |
| 20260505121003 | 70 | 229 | 2.0 | 8.0 | 0.00 | 0.00 | 0.00 | 30 | 1002.7 |
| 20260505120503 | 70 | 228 | 2.0 | 7.0 | 0.00 | 0.00 | 0.00 | 30 | 1002.6 |
| 20260505120003 | 70 | 224 | 1.0 | 7.0 | 0.00 | 0.00 | 0.00 | 30 | 1002.5 |
| 20260505115503 | 71 | 222 | 1.0 | 6.0 | 0.00 | 0.00 | 0.00 | 30 | 1002.6 |
| 20260505115003 | 71 | 235 | 1.0 | 6.0 | 0.00 | 0.00 | 0.00 | 30 | 1002.5 |
| 20260505114503 | 71 | 238 | 1.0 | 7.0 | 0.00 | 0.00 | 0.00 | 30 | 1002.4 |
| 20260505114003 | 71 | 223 | 1.0 | 7.0 | 0.00 | 0.00 | 0.00 | 29 | 1002.4 |
| 20260505113503 | 72 | 223 | 2.0 | 6.0 | 0.00 | 0.00 | 0.00 | 29 | 1002.3 |
| 20260505113024 | 72 | 237 | 2.0 | 10.0 | 0.00 | 0.00 | 0.00 | 29 | 1002.2 |
| 20260505112503 | 72 | 231 | 3.0 | 10.0 | 0.00 | 0.00 | 0.00 | 29 | 1002.2 |
| 20260505112003 | 72 | 215 | 4.0 | 9.0 | 0.00 | 0.00 | 0.00 | 29 | 1001.9 |
| 20260505111503 | 72 | 210 | 4.0 | 9.0 | 0.00 | 0.00 | 0.00 | 29 | 1001.9 |
| 20260505111003 | 72 | 208 | 3.0 | 9.0 | 0.00 | 0.00 | 0.00 | 29 | 1001.8 |
| 20260505110524 | 72 | 222 | 3.0 | 8.0 | 0.00 | 0.00 | 0.00 | 29 | 1001.8 |
| 20260505102003 | 73 | 207 | 3.0 | 9.0 | 0.00 | 0.00 | 0.00 | 27 | 1001.5 |
| 20260505101503 | 73 | 202 | 4.0 | 9.0 | 0.00 | 0.00 | 0.00 | 26 | 1001.4 |
| 20260505101024 | 73 | 204 | 4.0 | 9.0 | 0.00 | 0.00 | 0.00 | 26 | 1001.4 |
| 20260505100503 | 73 | 206 | 4.0 | 9.0 | 0.00 | 0.00 | 0.00 | 26 | 1001.5 |
| 20260505100003 | 73 | 204 | 4.0 | 9.0 | 0.00 | 0.00 | 0.00 | 27 | 1001.4 |
| 20260505095503 | 73 | 204 | 4.0 | 9.0 | 0.00 | 0.00 | 0.00 | 27 | 1001.4 |
| 20260505095003 | 73 | 201 | 4.0 | 9.0 | 0.00 | 0.00 | 0.00 | 27 | 1001.4 |
| 20260505094503 | 73 | 201 | 4.0 | 9.0 | 0.00 | 0.00 | 0.00 | 27 | 1001.3 |
| 20260505094003 | 73 | 199 | 5.0 | 9.0 | 0.00 | 0.00 | 0.00 | 27 | 1001.3 |
| 20260505093524 | 73 | 199 | 4.0 | 9.0 | 0.00 | 0.00 | 0.00 | 27 | 1001.3 |
| 20260505093003 | 73 | 197 | 4.0 | 9.0 | 0.00 | 0.00 | 0.00 | 27 | 1001.2 |
| 20260505092503 | 73 | 196 | 4.0 | 9.0 | 0.00 | 0.00 | 0.00 | 27 | 1001.0 |
| 20260505092003 | 73 | 197 | 5.0 | 11.0 | 0.00 | 0.00 | 0.00 | 27 | 1001.1 |
| 20260505091503 | 73 | 198 | 5.0 | 11.0 | 0.00 | 0.00 | 0.00 | 27 | 1001.1 |
| 20260505091003 | 73 | 199 | 4.0 | 10.0 | 0.00 | 0.00 | 0.00 | 27 | 1001.2 |
| 20260505090503 | 73 | 199 | 4.0 | 10.0 | 0.00 | 0.00 | 0.00 | 27 | 1001.3 |
| 20260505090003 | 73 | 199 | 4.0 | 12.0 | 0.00 | 0.00 | 0.00 | 27 | 1001.2 |
| 20260505085503 | 73 | 204 | 4.0 | 12.0 | 0.00 | 0.00 | 0.00 | 27 | 1001.3 |
| 20260505085003 | 73 | 201 | 5.0 | 12.0 | 0.00 | 0.00 | 0.00 | 28 | 1001.3 |
| 20260505084503 | 73 | 193 | 5.0 | 11.0 | 0.00 | 0.00 | 0.00 | 28 | 1001.4 |
| 20260505084003 | 73 | 192 | 4.0 | 10.0 | 0.00 | 0.00 | 0.00 | 28 | 1001.4 |
| 20260505083503 | 73 | 194 | 4.0 | 7.0 | 0.00 | 0.00 | 0.00 | 28 | 1001.3 |
| 20260505083003 | 74 | 196 | 3.0 | 8.0 | 0.00 | 0.00 | 0.00 | 28 | 1001.5 |
| 20260505082524 | 74 | 198 | 3.0 | 8.0 | 0.00 | 0.00 | 0.00 | 28 | 1001.4 |
| 20260505082003 | 74 | 198 | 2.0 | 6.0 | 0.00 | 0.00 | 0.00 | 28 | 1001.5 |
| 20260505081503 | 74 | 191 | 2.0 | 6.0 | 0.00 | 0.00 | 0.00 | 28 | 1001.6 |
| 20260505081003 | 74 | 194 | 3.0 | 9.0 | 0.00 | 0.00 | 0.00 | 28 | 1001.5 |
| 20260505080503 | 74 | 197 | 3.0 | 9.0 | 0.00 | 0.00 | 0.00 | 29 | 1001.7 |
| 20260505080003 | 74 | 195 | 4.0 | 8.0 | 0.00 | 0.00 | 0.00 | 29 | 1001.7 |
| 20260505075503 | 74 | 194 | 4.0 | 8.0 | 0.00 | 0.00 | 0.00 | 29 | 1001.7 |
| 20260505075003 | 74 | 193 | 3.0 | 7.0 | 0.00 | 0.00 | 0.00 | 29 | 1001.7 |
| 20260505074503 | 74 | 197 | 3.0 | 7.0 | 0.00 | 0.00 | 0.00 | 28 | 1001.8 |
| 20260505074003 | 75 | 198 | 3.0 | 7.0 | 0.00 | 0.00 | 0.00 | 28 | 1001.9 |
| 20260505073524 | 75 | 198 | 4.0 | 7.0 | 0.00 | 0.00 | 0.00 | 27 | 1001.9 |
| 20260505073003 | 76 | 203 | 2.0 | 7.0 | 0.00 | 0.00 | 0.00 | 27 | 1002.0 |
| 20260505072503 | 76 | 209 | 2.0 | 5.0 | 0.00 | 0.00 | 0.00 | 26 | 1001.8 |
| 20260505072003 | 76 | 209 | 2.0 | 6.0 | 0.00 | 0.00 | 0.00 | 26 | 1001.9 |
| 20260505071503 | 77 | 202 | 4.0 | 9.0 | 0.00 | 0.00 | 0.00 | 26 | 1002.0 |
| 20260505071003 | 77 | 196 | 4.0 | 9.0 | 0.00 | 0.00 | 0.00 | 25 | 1002.1 |
| 20260505070503 | 78 | 198 | 3.0 | 7.0 | 0.00 | 0.00 | 0.00 | 25 | 1002.1 |
| 20260505070003 | 78 | 198 | 3.0 | 9.0 | 0.00 | 0.00 | 0.00 | 24 | 1002.0 |
| 20260505065524 | 78 | 198 | 3.0 | 9.0 | 0.00 | 0.00 | 0.00 | 24 | 1002.3 |
| 20260505065003 | 79 | 225 | 2.0 | 7.0 | 0.00 | 0.00 | 0.00 | 23 | 1002.2 |
| 20260505064503 | 79 | 256 | 2.0 | 7.0 | 0.00 | 0.00 | 0.00 | 23 | 1002.1 |
| 20260505064003 | 79 | 261 | 2.0 | 6.0 | 0.00 | 0.00 | 0.00 | 23 | 1002.2 |
| 20260505063503 | 79 | 265 | 2.0 | 9.0 | 0.00 | 0.00 | 0.00 | 23 | 1002.3 |
| 20260505063003 | 79 | 262 | 2.0 | 9.0 | 0.00 | 0.00 | 0.00 | 24 | 1002.3 |
| 20260505062503 | 79 | 250 | 2.0 | 9.0 | 0.00 | 0.00 | 0.00 | 24 | 1002.4 |
| 20260505062003 | 79 | 249 | 2.0 | 6.0 | 0.00 | 0.00 | 0.00 | 24 | 1002.4 |
| 20260505061503 | 79 | 243 | 2.0 | 7.0 | 0.00 | 0.00 | 0.00 | 24 | 1002.5 |
| 20260505061003 | 79 | 235 | 1.0 | 7.0 | 0.00 | 0.00 | 0.00 | 25 | 1002.6 |
| 20260505060503 | 78 | 209 | 1.0 | 7.0 | 0.00 | 0.00 | 0.00 | 25 | 1002.7 |
| 20260505060003 | 78 | 191 | 2.0 | 7.0 | 0.00 | 0.00 | 0.00 | 25 | 1002.7 |
| 20260505055503 | 78 | 199 | 2.0 | 6.0 | 0.00 | 0.00 | 0.00 | 26 | 1002.6 |
| 20260505055003 | 78 | 206 | 2.0 | 7.0 | 0.00 | 0.00 | 0.00 | 26 | 1002.6 |
| 20260505054524 | 78 | 205 | 2.0 | 7.0 | 0.00 | 0.00 | 0.00 | 26 | 1002.8 |
| 20260505054003 | 78 | 202 | 2.0 | 7.0 | 0.00 | 0.00 | 0.00 | 26 | 1002.7 |
| 20260505053524 | 78 | 203 | 2.0 | 7.0 | 0.00 | 0.00 | 0.00 | 26 | 1002.8 |
| 20260505053003 | 79 | 201 | 2.0 | 6.0 | 0.00 | 0.00 | 0.00 | 26 | 1002.7 |
| 20260505052503 | 79 | 196 | 3.0 | 7.0 | 0.00 | 0.00 | 0.00 | 26 | 1002.8 |
| 20260505052003 | 79 | 200 | 3.0 | 8.0 | 0.00 | 0.00 | 0.00 | 25 | 1002.8 |
| 20260505051503 | 79 | 203 | 3.0 | 8.0 | 0.00 | 0.00 | 0.00 | 25 | 1002.7 |
| 20260505051003 | 80 | 201 | 3.0 | 8.0 | 0.00 | 0.00 | 0.00 | 25 | 1002.8 |
| 20260505050503 | 80 | 206 | 3.0 | 9.0 | 0.00 | 0.00 | 0.00 | 25 | 1002.8 |
| 20260505041503 | 82 | 216 | 3.0 | 8.0 | 0.00 | 0.00 | 0.00 | 23 | 1002.9 |
| 20260505041003 | 82 | 207 | 4.0 | 10.0 | 0.00 | 0.00 | 0.00 | 23 | 1002.8 |
| 20260505040503 | 82 | 205 | 4.0 | 10.0 | 0.00 | 0.00 | 0.00 | 23 | 1002.9 |
| 20260505040024 | 82 | 203 | 4.0 | 10.0 | 0.00 | 0.00 | 0.00 | 22 | 1002.9 |
| 20260505035503 | 82 | 200 | 4.0 | 10.0 | 0.00 | 0.00 | 0.00 | 22 | 1002.8 |
| 20260505035003 | 82 | 199 | 4.0 | 10.0 | 0.00 | 0.00 | 0.00 | 22 | 1002.7 |
| 20260505034503 | 83 | 201 | 5.0 | 10.0 | 0.00 | 0.00 | 0.00 | 21 | 1002.7 |
| 20260505034003 | 83 | 204 | 5.0 | 10.0 | 0.00 | 0.00 | 0.00 | 21 | 1002.7 |
| 20260505033503 | 83 | 203 | 4.0 | 10.0 | 0.00 | 0.00 | 0.00 | 21 | 1002.6 |
| 20260505033003 | 83 | 206 | 4.0 | 11.0 | 0.00 | 0.00 | 0.00 | 21 | 1002.6 |
| 20260505032503 | 84 | 209 | 5.0 | 11.0 | 0.00 | 0.00 | 0.00 | 20 | 1002.7 |
| 20260505032003 | 84 | 212 | 4.0 | 10.0 | 0.00 | 0.00 | 0.00 | 20 | 1002.7 |
| 20260505031524 | 84 | 206 | 3.0 | 8.0 | 0.00 | 0.00 | 0.00 | 20 | 1002.5 |
| 20260505031003 | 84 | 208 | 3.0 | 8.0 | 0.00 | 0.00 | 0.00 | 20 | 1002.6 |
| 20260505030503 | 84 | 214 | 3.0 | 9.0 | 0.00 | 0.00 | 0.00 | 20 | 1002.5 |
| 20260505030003 | 84 | 210 | 3.0 | 10.0 | 0.00 | 0.00 | 0.00 | 19 | 1002.5 |
| 20260505025503 | 85 | 223 | 3.0 | 10.0 | 0.00 | 0.00 | 0.00 | 19 | 1002.3 |
| 20260505025024 | 85 | 230 | 3.0 | 9.0 | 0.00 | 0.00 | 0.00 | 20 | 1002.4 |
| 20260505024524 | 85 | 217 | 4.0 | 11.0 | 0.00 | 0.00 | 0.00 | 20 | 1002.5 |
| 20260505024024 | 85 | 209 | 4.0 | 11.0 | 0.00 | 0.00 | 0.00 | 20 | 1002.5 |
| 20260505023503 | 84 | 207 | 5.0 | 10.0 | 0.00 | 0.00 | 0.00 | 21 | 1002.4 |
| 20260505023024 | 84 | 200 | 5.0 | 15.0 | 0.00 | 0.00 | 0.00 | 22 | 1002.3 |
| 20260505022503 | 84 | 191 | 6.0 | 15.0 | 0.00 | 0.00 | 0.00 | 26 | 1002.4 |
| 20260505022024 | 84 | 189 | 5.0 | 11.0 | 0.00 | 0.00 | 0.00 | 31 | 1002.3 |
| 20260505021503 | 85 | 195 | 6.0 | 10.0 | 0.00 | 0.00 | 0.00 | 30 | 1002.3 |
| 20260505021003 | 85 | 194 | 7.0 | 18.0 | 0.00 | 0.00 | 0.00 | 32 | 1002.4 |
| 20260505020503 | 85 | 191 | 9.0 | 20.0 | 0.00 | 0.00 | 0.00 | 33 | 1002.3 |
| 20260505020003 | 85 | 187 | 10.0 | 20.0 | 0.00 | 0.00 | 0.00 | 34 | 1002.3 |
| 20260505015503 | 85 | 178 | 11.0 | 20.0 | 0.00 | 0.00 | 0.00 | 36 | 1002.3 |
| 20260505015003 | 85 | 178 | 11.0 | 20.0 | 0.00 | 0.00 | 0.00 | 37 | 1002.0 |
| 20260505014524 | 85 | 179 | 11.0 | 17.0 | 0.00 | 0.00 | 0.00 | 37 | 1002.1 |
| 20260505014024 | 86 | 177 | 10.0 | 19.0 | 0.00 | 0.00 | 0.00 | 36 | 1002.0 |
| 20260505013503 | 86 | 177 | 10.0 | 19.0 | 0.00 | 0.00 | 0.00 | 33 | 1002.1 |
| 20260505013003 | 86 | 181 | 9.0 | 16.0 | 0.00 | 0.00 | 0.00 | 31 | 1002.0 |
| 20260505012524 | 87 | 182 | 9.0 | 14.0 | 0.00 | 0.00 | 0.00 | 29 | 1002.0 |
| 20260505012003 | 87 | 178 | 8.0 | 14.0 | 0.00 | 0.00 | 0.00 | 29 | 1001.8 |
| 20260505011503 | 87 | 178 | 8.0 | 15.0 | 0.00 | 0.00 | 0.00 | 29 | 1001.7 |
| 20260505011024 | 87 | 181 | 8.0 | 15.0 | 0.00 | 0.00 | 0.00 | 29 | 1001.7 |
| 20260505010503 | 88 | 186 | 7.0 | 13.0 | 0.00 | 0.00 | 0.00 | 29 | 1001.5 |
| 20260505010003 | 88 | 185 | 8.0 | 16.0 | 0.00 | 0.00 | 0.00 | 28 | 1001.5 |
| 20260505005503 | 88 | 183 | 8.0 | 16.0 | 0.00 | 0.00 | 0.00 | 28 | 1001.6 |
| 20260505005004 | 88 | 183 | 8.0 | 15.0 | 0.00 | 0.00 | 0.00 | 28 | 1001.5 |
| 20260505004503 | 88 | 185 | 8.0 | 15.0 | 0.00 | 0.00 | 0.00 | 28 | 1001.5 |
| 20260505004003 | 88 | 187 | 9.0 | 17.0 | 0.00 | 0.00 | 0.00 | 28 | 1001.7 |
| 20260505003524 | 89 | 187 | 9.0 | 20.0 | 0.00 | 0.00 | 0.00 | 27 | 1001.7 |
| 20260505003003 | 89 | 185 | 10.0 | 20.0 | 0.00 | 0.00 | 0.00 | 27 | 1001.7 |
| 20260505002503 | 89 | 187 | 9.0 | 16.0 | 0.00 | 0.00 | 0.00 | 27 | 1001.8 |
| 20260505002003 | 89 | 189 | 9.0 | 16.0 | 0.00 | 0.00 | 0.00 | 27 | 1002.0 |
| 20260505001524 | 89 | 190 | 9.0 | 16.0 | 0.00 | 0.00 | 0.00 | 27 | 1002.1 |
| 20260505001003 | 89 | 194 | 9.0 | 20.0 | 0.00 | 0.00 | 0.00 | 27 | 1002.1 |
| 20260505000503 | 90 | 199 | 9.0 | 20.0 | 0.00 | 0.00 | 0.00 | 27 | 1002.0 |
| 20260505000003 | 90 | 205 | 8.0 | 19.0 | 0.00 | 0.00 | 0.00 | 26 | 1002.0 |
| 20260504235503 | 90 | 204 | 9.0 | 21.0 | 0.00 | 0.00 | 0.00 | 26 | 1002.0 |
| 20260504235003 | 90 | 204 | 9.0 | 21.0 | 0.00 | 0.00 | 0.00 | 26 | 1002.0 |
| 20260504234503 | 90 | 207 | 8.0 | 19.0 | 0.00 | 0.00 | 0.00 | 26 | 1002.1 |
| 20260504234003 | 90 | 212 | 7.0 | 17.0 | 0.00 | 0.00 | 0.00 | 26 | 1002.1 |
| 20260504233524 | 91 | 220 | 8.0 | 19.0 | 0.00 | 0.00 | 0.00 | 25 | 1002.1 |
| 20260504233003 | 91 | 217 | 10.0 | 19.0 | 0.00 | 0.00 | 0.00 | 25 | 1002.2 |
| 20260504232503 | 91 | 215 | 8.0 | 18.0 | 0.00 | 0.00 | 0.00 | 25 | 1002.3 |
| 20260504232003 | 91 | 208 | 7.0 | 15.0 | 0.00 | 0.00 | 0.00 | 25 | 1002.4 |
| 20260504231503 | 91 | 203 | 7.0 | 21.0 | 0.00 | 0.00 | 0.00 | 26 | 1002.4 |
| 20260504231003 | 91 | 204 | 8.0 | 21.0 | 0.00 | 0.00 | 0.00 | 26 | 1002.4 |
| 20260504230503 | 91 | 201 | 11.0 | 29.0 | 0.00 | 0.00 | 0.00 | 26 | 1002.3 |
| 20260504230003 | 91 | 199 | 13.0 | 29.0 | 0.00 | 0.00 | 0.00 | 26 | 1002.3 |
| 20260504225524 | 91 | 201 | 11.0 | 24.0 | 0.00 | 0.00 | 0.00 | 25 | 1002.4 |
| 20260504225003 | 92 | 204 | 9.0 | 23.0 | 0.00 | 0.00 | 0.00 | 24 | 1002.5 |
| 20260504224503 | 92 | 205 | 9.0 | 19.0 | 0.00 | 0.00 | 0.00 | 24 | 1002.4 |
| 20260504224003 | 92 | 209 | 8.0 | 21.0 | 0.00 | 0.00 | 0.00 | 24 | 1002.4 |
| 20260504223503 | 92 | 207 | 7.0 | 21.0 | 0.00 | 0.00 | 0.00 | 23 | 1002.5 |
| 20260504223024 | 92 | 203 | 6.0 | 17.0 | 0.00 | 0.00 | 0.00 | 23 | 1002.6 |
| 20260504222503 | 92 | 206 | 7.0 | 17.0 | 0.00 | 0.00 | 0.00 | 23 | 1002.6 |
| 20260504222003 | 92 | 204 | 8.0 | 19.0 | 0.00 | 0.00 | 0.00 | 23 | 1002.5 |
| 20260504221503 | 92 | 204 | 9.0 | 19.0 | 0.00 | 0.00 | 0.00 | 23 | 1002.5 |
| 20260504221003 | 92 | 203 | 9.0 | 20.0 | 0.00 | 0.00 | 0.00 | 24 | 1002.5 |
| 20260504220503 | 92 | 206 | 7.0 | 20.0 | 0.00 | 0.00 | 0.00 | 24 | 1002.5 |
| 20260504220003 | 92 | 209 | 6.0 | 14.0 | 0.00 | 0.00 | 0.00 | 24 | 1002.6 |
| 20260504215503 | 92 | 204 | 7.0 | 15.0 | 0.00 | 0.00 | 0.00 | 24 | 1002.8 |
| 20260504215003 | 93 | 240 | 6.0 | 15.0 | 0.00 | 0.00 | 0.00 | 23 | 1002.8 |
| 20260504214503 | 93 | 254 | 6.0 | 15.0 | 0.00 | 0.00 | 0.00 | 22 | 1002.6 |
| 20260504214024 | 94 | 225 | 7.0 | 26.0 | 0.00 | 0.00 | 0.00 | 22 | 1002.8 |
| 20260504213524 | 94 | 223 | 8.0 | 26.0 | 0.00 | 0.00 | 0.00 | 22 | 1002.9 |
| 20260504213003 | 94 | 217 | 5.0 | 14.0 | 0.00 | 0.00 | 0.00 | 23 | 1002.9 |
| 20260504212503 | 93 | 236 | 5.0 | 14.0 | 0.00 | 0.00 | 0.00 | 23 | 1003.0 |
| 20260504212003 | 93 | 229 | 6.0 | 14.0 | 0.00 | 0.00 | 0.00 | 22 | 1003.0 |
| 20260504211524 | 94 | 207 | 7.0 | 14.0 | 0.00 | 0.00 | 0.00 | 22 | 1003.0 |
| 20260504211003 | 94 | 207 | 8.0 | 19.0 | 0.00 | 0.00 | 0.00 | 22 | 1003.1 |
| 20260504210503 | 94 | 215 | 7.0 | 19.0 | 0.00 | 0.00 | 0.00 | 22 | 1003.2 |
| 20260504210003 | 94 | 220 | 5.0 | 13.0 | 0.00 | 0.00 | 0.00 | 22 | 1003.5 |
| 20260504205503 | 94 | 219 | 5.0 | 13.0 | 0.00 | 0.00 | 0.00 | 22 | 1003.5 |
| 20260504205024 | 95 | 235 | 4.0 | 13.0 | 0.00 | 0.00 | 0.00 | 21 | 1003.5 |
| 20260504204503 | 95 | 266 | 5.0 | 13.0 | 0.00 | 0.00 | 0.00 | 22 | 1003.7 |
| 20260504204024 | 94 | 274 | 5.0 | 13.0 | 0.00 | 0.00 | 0.00 | 22 | 1003.8 |
| 20260504203503 | 94 | 274 | 5.0 | 12.0 | 0.00 | 0.00 | 0.00 | 22 | 1003.9 |
| 20260504203003 | 94 | 279 | 5.0 | 16.0 | 0.00 | 0.00 | 0.00 | 23 | 1004.1 |
| 20260504202503 | 94 | 263 | 6.0 | 16.0 | 0.00 | 0.00 | 0.00 | 22 | 1004.0 |
| 20260504202024 | 95 | 249 | 5.0 | 14.0 | 0.00 | 0.00 | 0.00 | 22 | 1003.8 |
| 20260504201503 | 95 | 224 | 5.0 | 16.0 | 0.00 | 0.00 | 0.00 | 22 | 1004.0 |
| 20260504201003 | 94 | 213 | 5.0 | 16.0 | 0.00 | 0.00 | 0.00 | 23 | 1004.0 |
| 20260504200503 | 94 | 203 | 5.0 | 13.0 | 0.00 | 0.00 | 0.00 | 23 | 1004.1 |
| 20260504200003 | 93 | 211 | 5.0 | 12.0 | 0.00 | 0.00 | 0.00 | 24 | 1004.1 |
| 20260504195503 | 94 | 261 | 5.0 | 15.0 | 0.00 | 0.00 | 0.00 | 23 | 1004.2 |
| 20260504195003 | 94 | 256 | 5.0 | 15.0 | 0.00 | 0.00 | 0.00 | 22 | 1004.4 |
| 20260504194503 | 94 | 235 | 5.0 | 14.0 | 0.00 | 0.00 | 0.00 | 23 | 1004.4 |
| 20260504194003 | 93 | 243 | 5.0 | 14.0 | 0.00 | 0.00 | 0.00 | 22 | 1004.6 |
| 20260504193503 | 93 | 258 | 5.0 | 17.0 | 0.00 | 0.00 | 0.00 | 23 | 1004.7 |
| 20260504193003 | 93 | 268 | 6.0 | 17.0 | 0.00 | 0.00 | 0.00 | 23 | 1004.7 |
| 20260504192503 | 92 | 269 | 6.0 | 21.0 | 0.00 | 0.00 | 0.00 | 24 | 1004.9 |
| 20260504192003 | 92 | 235 | 7.0 | 23.0 | 0.00 | 0.00 | 0.00 | 24 | 1005.0 |
| 20260504191503 | 92 | 235 | 6.0 | 23.0 | 0.00 | 0.00 | 0.00 | 25 | 1004.8 |
| 20260504191003 | 92 | 279 | 7.0 | 17.0 | 0.00 | 0.00 | 0.00 | 24 | 1005.1 |
| 20260504190503 | 92 | 264 | 7.0 | 17.0 | 0.00 | 0.00 | 0.00 | 24 | 1005.4 |
| 20260504190024 | 92 | 246 | 5.0 | 17.0 | 0.00 | 0.00 | 0.00 | 25 | 1005.7 |
| 20260504185503 | 92 | 259 | 5.0 | 14.0 | 0.00 | 0.00 | 0.00 | 25 | 1005.8 |
| 20260504185003 | 92 | 254 | 5.0 | 13.0 | 0.00 | 0.00 | 0.00 | 26 | 1005.5 |
| 20260504184503 | 92 | 254 | 5.0 | 13.0 | 0.00 | 0.00 | 0.00 | 26 | 1005.7 |
| 20260504184003 | 91 | 276 | 5.0 | 12.0 | 0.00 | 0.00 | 0.00 | 27 | 1006.0 |
| 20260504183503 | 90 | 278 | 6.0 | 12.0 | 0.00 | 0.00 | 0.00 | 27 | 1006.0 |
| 20260504183024 | 90 | 271 | 6.0 | 13.0 | 0.00 | 0.00 | 0.00 | 27 | 1006.1 |
| 20260504182524 | 90 | 278 | 6.0 | 13.0 | 0.00 | 0.00 | 0.00 | 27 | 1006.4 |
| 20260504182003 | 90 | 255 | 6.0 | 13.0 | 0.00 | 0.00 | 0.00 | 28 | 1006.4 |
| 20260504181524 | 89 | 253 | 6.0 | 14.0 | 0.00 | 0.00 | 0.00 | 30 | 1006.5 |
| 20260504181024 | 89 | 227 | 7.0 | 17.0 | 0.00 | 0.00 | 0.00 | 29 | 1006.7 |
| 20260504180503 | 88 | 210 | 8.0 | 18.0 | 0.00 | 0.00 | 0.00 | 30 | 1006.7 |
| 20260504180003 | 88 | 218 | 7.0 | 18.0 | 0.00 | 0.00 | 0.00 | 30 | 1006.8 |
| 20260504175503 | 88 | 245 | 6.0 | 15.0 | 0.00 | 0.00 | 0.00 | 30 | 1007.0 |
| 20260504175003 | 88 | 256 | 6.0 | 15.0 | 0.00 | 0.00 | 0.00 | 30 | 1007.1 |
| 20260504174524 | 88 | 249 | 6.0 | 16.0 | 0.00 | 0.00 | 0.00 | 31 | 1007.3 |
| 20260504174024 | 88 | 236 | 6.0 | 16.0 | 0.00 | 0.00 | 0.00 | 31 | 1007.2 |
| 20260504173503 | 87 | 246 | 6.0 | 17.0 | 0.00 | 0.00 | 0.00 | 33 | 1007.3 |